createdAt,value
2023-01-11T00:01:07.819Z,101594.59
2023-01-11T00:03:35.465Z,101596.59
2023-01-11T00:06:03.251Z,101553.50
2023-01-11T00:08:30.584Z,101516.72
2023-01-11T00:10:58.302Z,101545.03
2023-01-11T00:13:25.812Z,101594.53
2023-01-11T00:15:53.457Z,101592.72
2023-01-11T00:18:21.475Z,101600.53
2023-01-11T00:20:48.976Z,101601.53
2023-01-11T00:23:16.919Z,101583.69
2023-01-11T00:25:44.759Z,101531.31
2023-01-11T00:28:12.500Z,101578.81
2023-01-11T00:30:39.826Z,101576.50
2023-01-11T00:33:07.450Z,101582.25
2023-01-11T00:35:34.975Z,101614.75
2023-01-11T00:38:02.357Z,101580.47
2023-01-11T00:40:29.933Z,101586.34
2023-01-11T00:43:16.323Z,101549.81
2023-01-11T00:46:02.081Z,101532.25
2023-01-11T00:48:29.725Z,101578.22
2023-01-11T00:50:57.868Z,101593.38
2023-01-11T00:53:25.129Z,101598.72
2023-01-11T00:55:52.868Z,101597.97
2023-01-11T00:58:20.450Z,101579.47
2023-01-11T01:00:47.915Z,101577.16
2023-01-11T01:03:15.431Z,101585.91
2023-01-11T01:05:43.024Z,101578.25
2023-01-11T01:08:10.239Z,101529.63
2023-01-11T01:10:37.811Z,101577.78
2023-01-11T01:13:24.093Z,101579.84
2023-01-11T01:15:57.301Z,101608.78
2023-01-11T01:18:25.562Z,101577.28
2023-01-11T01:20:52.940Z,101584.59
2023-01-11T01:23:20.336Z,101572.88
2023-01-11T01:25:47.929Z,101577.19
2023-01-11T01:28:15.241Z,101514.50
2023-01-11T01:30:42.666Z,101581.91
2023-01-11T01:33:10.271Z,101586.09
2023-01-11T01:35:38.648Z,101572.56
2023-01-11T01:38:06.297Z,101570.25
2023-01-11T01:40:33.854Z,101574.25
2023-01-11T01:43:01.173Z,101581.53
2023-01-11T01:45:29.110Z,101573.53
2023-01-11T01:48:01.287Z,101570.75
2023-01-11T01:50:43.582Z,101570.59
2023-01-11T01:53:16.990Z,101573.81
2023-01-11T01:55:49.437Z,101573.06
2023-01-11T01:58:22.131Z,101558.63
2023-01-11T02:00:49.754Z,101568.84
2023-01-11T02:03:20.978Z,101484.47
2023-01-11T02:05:50.674Z,101568.97
2023-01-11T02:08:25.210Z,101555.94
2023-01-11T02:10:53.800Z,101565.28
2023-01-11T02:13:21.562Z,101561.06
2023-01-11T02:16:08.159Z,101565.78
2023-01-11T02:18:38.289Z,101569.06
2023-01-11T02:21:36.722Z,101564.53
2023-01-11T02:24:10.756Z,101557.53
2023-01-11T02:27:07.379Z,101551.50
2023-01-11T02:29:57.625Z,101550.25
2023-01-11T02:33:10.197Z,101548.84
2023-01-11T02:35:49.918Z,101545.41
2023-01-11T02:38:32.419Z,101531.25
2023-01-11T02:41:18.073Z,101525.00
2023-01-11T02:44:31.677Z,101536.53
2023-01-11T02:47:04.647Z,101553.72
2023-01-11T02:49:38.452Z,101536.19
2023-01-11T02:52:13.096Z,101542.53
2023-01-11T02:54:45.317Z,101531.59
2023-01-11T02:57:15.700Z,101541.88
2023-01-11T02:59:44.094Z,101455.25
2023-01-11T03:02:13.477Z,101541.78
2023-01-11T03:04:41.053Z,101538.09
2023-01-11T03:07:30.367Z,101543.84
2023-01-11T03:10:21.557Z,101542.88
2023-01-11T03:13:13.146Z,101529.34
2023-01-11T03:15:53.986Z,101530.22
2023-01-11T03:18:50.477Z,101520.38
2023-01-11T03:21:41.889Z,101532.13
2023-01-11T03:24:21.552Z,101519.34
2023-01-11T03:27:19.309Z,101509.16
2023-01-11T03:29:59.125Z,101507.19
2023-01-11T03:32:35.692Z,101513.16
2023-01-11T03:35:09.112Z,101502.22
2023-01-11T03:37:40.997Z,101506.53
2023-01-11T03:40:15.823Z,101507.97
2023-01-11T03:43:06.190Z,101517.16
2023-01-11T03:45:38.730Z,101526.50
2023-01-11T03:48:11.481Z,101526.50
2023-01-11T03:50:40.823Z,101522.28
2023-01-11T03:53:10.663Z,101428.72
2023-01-11T03:55:42.414Z,101516.06
2023-01-11T03:58:10.152Z,101519.34
2023-01-11T04:00:38.219Z,101522.03
2023-01-11T04:03:06.381Z,101516.28
2023-01-11T04:05:35.443Z,101446.94
2023-01-11T04:08:02.767Z,101506.31
2023-01-11T04:10:30.549Z,101499.66
2023-01-11T04:12:58.110Z,101473.25
2023-01-11T04:15:25.352Z,101438.47
2023-01-11T04:17:52.995Z,101480.22
2023-01-11T04:20:20.690Z,101492.09
2023-01-11T04:22:48.272Z,101508.84
2023-01-11T04:25:15.815Z,101434.06
2023-01-11T04:27:43.410Z,101498.19
2023-01-11T04:30:11.312Z,101494.63
2023-01-11T04:32:38.885Z,101496.63
2023-01-11T04:35:06.758Z,101515.50
2023-01-11T04:37:34.308Z,101495.22
2023-01-11T04:40:02.154Z,101466.75
2023-01-11T04:42:31.277Z,101475.13
2023-01-11T04:44:58.900Z,101495.53
2023-01-11T04:47:26.698Z,101477.00
2023-01-11T04:49:54.164Z,101472.34
2023-01-11T04:52:21.748Z,101478.31
2023-01-11T04:54:49.742Z,101474.31
2023-01-11T04:57:17.802Z,101477.53
2023-01-11T04:59:46.970Z,101474.00
2023-01-11T05:02:15.698Z,101459.75
2023-01-11T05:04:43.442Z,101474.97
2023-01-11T05:07:11.553Z,101445.97
2023-01-11T05:09:39.155Z,101483.41
2023-01-11T05:12:06.858Z,101431.31
2023-01-11T05:14:34.340Z,101464.56
2023-01-11T05:17:01.968Z,101462.34
2023-01-11T05:19:29.612Z,101464.25
2023-01-11T05:21:57.148Z,101461.84
2023-01-11T05:24:24.847Z,101460.16
2023-01-11T05:26:53.440Z,101450.72
2023-01-11T05:29:21.918Z,101413.03
2023-01-11T05:31:50.817Z,101355.34
2023-01-11T05:34:18.867Z,101453.16
2023-01-11T05:36:46.384Z,101453.75
2023-01-11T05:39:15.361Z,101453.09
2023-01-11T05:41:43.259Z,101454.97
2023-01-11T05:44:32.596Z,101405.44
2023-01-11T05:47:00.143Z,101471.09
2023-01-11T05:49:27.662Z,101470.06
2023-01-11T05:51:55.565Z,101404.78
2023-01-11T05:54:23.195Z,101437.66
2023-01-11T05:56:50.885Z,101472.31
2023-01-11T05:59:18.468Z,101466.44
2023-01-11T06:01:46.245Z,101453.78
2023-01-11T06:04:14.660Z,101459.00
2023-01-11T06:06:42.191Z,101459.34
2023-01-11T06:09:09.716Z,101452.69
2023-01-11T06:11:37.128Z,101463.00
2023-01-11T06:14:04.546Z,101443.22
2023-01-11T06:16:32.113Z,101450.13
2023-01-11T06:18:59.677Z,101466.56
2023-01-11T06:21:27.477Z,101465.34
2023-01-11T06:23:55.516Z,101468.78
2023-01-11T06:26:23.672Z,101479.22
2023-01-11T06:28:51.757Z,101378.44
2023-01-11T06:31:20.158Z,101456.69
2023-01-11T06:33:47.812Z,101452.72
2023-01-11T06:36:16.435Z,101448.38
2023-01-11T06:39:04.632Z,101438.50
2023-01-11T06:41:32.450Z,101446.31
2023-01-11T06:44:00.421Z,101438.88
2023-01-11T06:46:29.174Z,101442.75
2023-01-11T06:48:56.795Z,101435.44
2023-01-11T06:51:24.324Z,101431.41
2023-01-11T06:53:51.632Z,101438.31
2023-01-11T06:56:19.330Z,101432.41
2023-01-11T06:58:47.970Z,101438.53
2023-01-11T07:01:18.410Z,101400.91
2023-01-11T07:03:46.148Z,101433.97
2023-01-11T07:06:14.167Z,101448.06
2023-01-11T07:08:42.631Z,101418.84
2023-01-11T07:11:10.759Z,101377.78
2023-01-11T07:13:38.793Z,101419.25
2023-01-11T07:16:06.588Z,101377.88
2023-01-11T07:18:34.403Z,101432.16
2023-01-11T07:21:02.641Z,101441.13
2023-01-11T07:23:30.192Z,101440.22
2023-01-11T07:25:57.846Z,101420.84
2023-01-11T07:28:25.418Z,101425.97
2023-01-11T07:30:58.654Z,101433.28
2023-01-11T07:33:27.334Z,101442.25
2023-01-11T07:35:55.415Z,101438.25
2023-01-11T07:38:23.376Z,101434.41
2023-01-11T07:40:51.189Z,101389.94
2023-01-11T07:43:20.137Z,101434.63
2023-01-11T07:45:50.060Z,101432.16
2023-01-11T07:48:25.531Z,101406.34
2023-01-11T07:50:53.905Z,101387.31
2023-01-11T07:53:22.318Z,101363.31
2023-01-11T07:55:50.058Z,101436.06
2023-01-11T07:58:17.536Z,101437.06
2023-01-11T08:00:46.298Z,101430.25
2023-01-11T08:03:14.416Z,101431.16
2023-01-11T08:05:41.883Z,101391.44
2023-01-11T08:08:09.569Z,101428.53
2023-01-11T08:10:37.079Z,101428.88
2023-01-11T08:13:23.279Z,101423.78
2023-01-11T08:15:50.955Z,101415.00
2023-01-11T08:18:19.619Z,101416.88
2023-01-11T08:20:47.731Z,101419.44
2023-01-11T08:23:15.412Z,101425.47
2023-01-11T08:25:42.795Z,101410.78
2023-01-11T08:28:11.969Z,101403.25
2023-01-11T08:30:40.366Z,101389.94
2023-01-11T08:33:07.762Z,101391.91
2023-01-11T08:35:39.248Z,101320.19
2023-01-11T08:38:07.478Z,101386.50
2023-01-11T08:40:35.042Z,101382.03
2023-01-11T08:43:02.478Z,101381.25
2023-01-11T08:45:29.819Z,101384.22
2023-01-11T08:48:00.207Z,101388.66
2023-01-11T08:50:27.880Z,101369.53
2023-01-11T08:52:55.695Z,101375.91
2023-01-11T08:55:23.192Z,101284.78
2023-01-11T08:57:50.693Z,101373.13
2023-01-11T09:00:19.014Z,101296.44
2023-01-11T09:02:46.442Z,101354.81
2023-01-11T09:05:14.387Z,101364.88
2023-01-11T09:07:42.387Z,101384.16
2023-01-11T09:10:10.176Z,101363.47
2023-01-11T09:12:37.588Z,101330.19
2023-01-11T09:15:06.278Z,101372.31
2023-01-11T09:17:34.190Z,101347.47
2023-01-11T09:20:01.850Z,101357.97
2023-01-11T09:22:31.068Z,101364.78
2023-01-11T09:25:00.486Z,101371.59
2023-01-11T09:27:28.246Z,101379.38
2023-01-11T09:29:55.923Z,101366.56
2023-01-11T09:32:23.635Z,101349.34
2023-01-11T09:34:54.213Z,101341.97
2023-01-11T09:37:22.983Z,101344.34
2023-01-11T09:39:52.675Z,101263.56
2023-01-11T09:42:32.619Z,101339.03
2023-01-11T09:45:05.822Z,101335.69
2023-01-11T09:47:33.913Z,101325.25
2023-01-11T09:50:07.224Z,101326.50
2023-01-11T09:52:41.399Z,101325.72
2023-01-11T09:55:21.538Z,101306.50
2023-01-11T09:58:28.614Z,101317.00
2023-01-11T10:01:31.420Z,101310.59
2023-01-11T10:04:37.801Z,101312.28
2023-01-11T10:07:24.788Z,101302.25
2023-01-11T10:18:37.724Z,101298.13
2023-01-11T10:19:34.840Z,101294.50
2023-01-11T10:22:23.794Z,101292.69
2023-01-11T10:25:11.567Z,101284.28
2023-01-11T10:27:54.220Z,101265.22
2023-01-11T10:30:32.217Z,101280.03
2023-01-11T10:33:29.565Z,101279.50
2023-01-11T10:37:01.146Z,101269.97
2023-01-11T10:40:16.929Z,101270.91
2023-01-11T10:43:14.363Z,101275.63
2023-01-11T10:45:50.730Z,101263.78
2023-01-11T10:48:23.777Z,101271.50
2023-01-11T10:51:06.831Z,101267.59
2023-01-11T10:54:01.053Z,101264.38
2023-01-11T10:56:42.892Z,101265.19
2023-01-11T10:59:56.827Z,101255.88
2023-01-11T11:02:26.133Z,101240.25
2023-01-11T11:05:00.999Z,101246.63
2023-01-11T11:07:43.381Z,101242.75
2023-01-11T11:10:55.524Z,101244.75
2023-01-11T11:13:34.935Z,101249.47
2023-01-11T11:16:10.432Z,101235.94
2023-01-11T11:18:38.081Z,101234.53
2023-01-11T11:21:16.553Z,101223.94
2023-01-11T11:23:45.369Z,101227.44
2023-01-11T11:26:13.576Z,101217.81
2023-01-11T11:29:03.357Z,101155.81
2023-01-11T11:31:32.929Z,101195.47
2023-01-11T11:34:07.453Z,101211.81
2023-01-11T11:36:47.530Z,101198.91
2023-01-11T11:39:31.166Z,101206.94
2023-01-11T11:42:17.358Z,101150.94
2023-01-11T11:44:45.523Z,101196.50
2023-01-11T11:47:17.890Z,101198.78
2023-01-11T11:49:46.201Z,101193.94
2023-01-11T11:52:17.640Z,101200.19
2023-01-11T11:54:58.124Z,101141.84
2023-01-11T11:57:36.111Z,101187.78
2023-01-11T12:00:08.090Z,101186.59
2023-01-11T12:02:42.459Z,101184.94
2023-01-11T12:05:11.299Z,101172.09
2023-01-11T12:07:54.694Z,101173.63
2023-01-11T12:10:26.071Z,101092.09
2023-01-11T12:13:01.448Z,101177.66
2023-01-11T12:15:31.618Z,101171.59
2023-01-11T12:18:16.642Z,101170.69
2023-01-11T12:20:45.013Z,101160.97
2023-01-11T12:23:24.501Z,101179.28
2023-01-11T12:26:20.058Z,101168.22
2023-01-11T12:29:17.818Z,101166.59
2023-01-11T12:32:18.966Z,101166.50
2023-01-11T12:35:10.097Z,101170.66
2023-01-11T12:37:53.823Z,101173.06
2023-01-11T12:40:55.564Z,101171.91
2023-01-11T12:43:48.644Z,101170.50
2023-01-11T12:46:34.548Z,101160.69
2023-01-11T12:49:42.172Z,101159.88
2023-01-11T12:52:12.521Z,101160.97
2023-01-11T12:55:15.741Z,101161.25
2023-01-11T12:58:00.535Z,101168.13
2023-01-11T13:00:43.370Z,101144.97
2023-01-11T13:03:35.709Z,101163.53
2023-01-11T13:06:15.251Z,101156.38
2023-01-11T13:09:07.355Z,101157.84
2023-01-11T13:11:55.257Z,101167.22
2023-01-11T13:14:53.462Z,101162.09
2023-01-11T13:17:41.090Z,101156.44
2023-01-11T13:20:22.661Z,101161.69
2023-01-11T13:22:55.630Z,101158.13
2023-01-11T13:25:51.236Z,101153.81
2023-01-11T13:28:29.344Z,101164.31
2023-01-11T13:30:58.882Z,101154.69
2023-01-11T13:33:31.335Z,101135.88
2023-01-11T13:36:12.266Z,101107.03
2023-01-11T13:39:00.681Z,101054.44
2023-01-11T13:41:38.601Z,101096.69
2023-01-11T13:44:27.919Z,101157.31
2023-01-11T13:47:04.454Z,101157.31
2023-01-11T13:49:51.443Z,101154.00
2023-01-11T13:53:03.314Z,101152.47
2023-01-11T13:55:41.698Z,101142.22
2023-01-11T13:58:30.113Z,101135.63
2023-01-11T14:01:15.575Z,101135.97
2023-01-11T14:03:56.910Z,101132.44
2023-01-11T14:06:36.688Z,101136.84
2023-01-11T14:09:45.557Z,101137.81
2023-01-11T14:12:37.796Z,101137.81
2023-01-11T14:15:17.889Z,101138.53
2023-01-11T14:17:45.415Z,101144.88
2023-01-11T14:20:36.619Z,101126.75
2023-01-11T14:23:17.526Z,101110.78
2023-01-11T14:26:22.381Z,101117.31
2023-01-11T14:29:19.915Z,101125.72
2023-01-11T14:32:24.851Z,101110.22
2023-01-11T14:35:04.499Z,101116.97
2023-01-11T14:37:56.359Z,101125.28
2023-01-11T14:40:39.037Z,101112.72
2023-01-11T14:43:35.494Z,101122.78
2023-01-11T14:46:29.432Z,101123.66
2023-01-11T14:49:16.719Z,101128.78
2023-01-11T14:51:44.498Z,101116.94
2023-01-11T14:54:21.498Z,101069.66
2023-01-11T14:56:53.216Z,101127.28
2023-01-11T14:59:40.011Z,101016.53
2023-01-11T15:02:13.487Z,101119.56
2023-01-11T15:04:54.989Z,101116.94
2023-01-11T15:07:39.097Z,101123.97
2023-01-11T15:10:30.794Z,101118.09
2023-01-11T15:12:59.198Z,101108.53
2023-01-11T15:15:47.439Z,101060.53
2023-01-11T15:18:20.382Z,101117.00
2023-01-11T15:21:03.504Z,101117.16
2023-01-11T15:23:39.138Z,101132.28
2023-01-11T15:26:09.633Z,101114.44
2023-01-11T15:28:57.792Z,101102.16
2023-01-11T15:31:54.053Z,101115.25
2023-01-11T15:34:32.209Z,101111.41
2023-01-11T15:37:03.725Z,101097.38
2023-01-11T15:39:54.106Z,101092.31
2023-01-11T15:42:32.053Z,101092.53
2023-01-11T15:45:02.468Z,101121.03
2023-01-11T15:47:59.499Z,101116.03
2023-01-11T15:50:52.735Z,101067.38
2023-01-11T15:53:50.169Z,101117.88
2023-01-11T15:56:24.122Z,101113.28
2023-01-11T15:59:03.793Z,101107.56
2023-01-11T16:01:35.476Z,101099.13
2023-01-11T16:04:31.108Z,101113.78
2023-01-11T16:07:05.834Z,101113.44
2023-01-11T16:09:42.138Z,101112.06
2023-01-11T16:12:15.586Z,101122.75
2023-01-11T16:15:06.096Z,101117.56
2023-01-11T16:17:33.856Z,101109.16
2023-01-11T16:20:27.909Z,101112.88
2023-01-11T16:22:59.679Z,101111.97
2023-01-11T16:25:37.132Z,101095.03
2023-01-11T16:28:06.418Z,100992.09
2023-01-11T16:30:34.407Z,101087.72
2023-01-11T16:33:34.884Z,101066.22
2023-01-11T16:36:07.826Z,101069.59
2023-01-11T16:38:54.249Z,101056.16
2023-01-11T16:41:23.971Z,101006.47
2023-01-11T16:44:01.911Z,101044.28
2023-01-11T16:46:47.647Z,101052.50
2023-01-11T16:49:18.867Z,101043.06
2023-01-11T16:51:49.201Z,101057.38
2023-01-11T16:54:25.655Z,100978.72
2023-01-11T16:56:56.409Z,101020.75
2023-01-11T16:59:30.959Z,101043.72
2023-01-11T17:02:00.851Z,100951.19
2023-01-11T17:04:38.661Z,101047.78
2023-01-11T17:07:13.806Z,101054.84
2023-01-11T17:09:43.846Z,100954.34
2023-01-11T17:12:19.025Z,101042.34
2023-01-11T17:15:24.017Z,101053.75
2023-01-11T17:17:51.971Z,101055.81
2023-01-11T17:20:22.202Z,101030.50
2023-01-11T17:22:54.094Z,101000.16
2023-01-11T17:25:31.691Z,101041.13
2023-01-11T17:28:08.717Z,101043.13
2023-01-11T17:30:54.517Z,100963.94
2023-01-11T17:33:30.586Z,101016.50
2023-01-11T17:36:08.436Z,101025.25
2023-01-11T17:38:36.142Z,100954.88
2023-01-11T17:41:26.575Z,101021.63
2023-01-11T17:44:13.400Z,101030.47
2023-01-11T17:46:41.167Z,101015.06
2023-01-11T17:49:21.734Z,100931.19
2023-01-11T17:51:50.823Z,101015.22
2023-01-11T17:54:25.981Z,101006.72
2023-01-11T17:57:00.984Z,101005.00
2023-01-11T17:59:30.484Z,100996.78
2023-01-11T18:02:03.011Z,100995.28
2023-01-11T18:04:34.131Z,101009.22
2023-01-11T18:07:21.321Z,100946.56
2023-01-11T18:09:51.979Z,100938.41
2023-01-11T18:12:25.550Z,101004.50
2023-01-11T18:15:16.969Z,101007.84
2023-01-11T18:17:48.579Z,100997.13
2023-01-11T18:20:16.238Z,100998.88
2023-01-11T18:23:00.158Z,100987.88
2023-01-11T18:25:41.457Z,100987.81
2023-01-11T18:28:12.007Z,100989.56
2023-01-11T18:30:46.408Z,100959.53
2023-01-11T18:33:22.015Z,100994.38
2023-01-11T18:35:55.739Z,100998.09
2023-01-11T18:38:36.459Z,100990.19
2023-01-11T18:41:26.735Z,100986.69
2023-01-11T18:43:55.178Z,100995.53
2023-01-11T18:46:23.534Z,100953.28
2023-01-11T18:48:51.511Z,101010.34
2023-01-11T18:51:41.876Z,101001.19
2023-01-11T18:54:16.646Z,101012.66
2023-01-11T18:56:44.240Z,101016.28
2023-01-11T18:59:13.357Z,101013.91
2023-01-11T19:01:54.476Z,101011.22
2023-01-11T19:04:34.194Z,101006.97
2023-01-11T19:07:02.058Z,101031.44
2023-01-11T19:09:29.462Z,101038.16
2023-01-11T19:12:03.345Z,101023.16
2023-01-11T19:14:32.149Z,101035.50
2023-01-11T19:17:00.173Z,101023.66
2023-01-11T19:19:27.896Z,101036.47
2023-01-11T19:21:55.263Z,101028.78
2023-01-11T19:24:36.015Z,100957.72
2023-01-11T19:27:04.555Z,101015.22
2023-01-11T19:29:37.972Z,100998.13
2023-01-11T19:32:15.272Z,101006.84
2023-01-11T19:34:43.363Z,100984.44
2023-01-11T19:37:11.187Z,101030.06
2023-01-11T19:39:40.359Z,101028.31
2023-01-11T19:42:13.425Z,101023.31
2023-01-11T19:44:43.299Z,101018.34
2023-01-11T19:47:15.332Z,101010.50
2023-01-11T19:49:43.943Z,101023.16
2023-01-11T19:52:14.113Z,101022.25
2023-01-11T19:54:49.365Z,101007.94
2023-01-11T19:57:20.546Z,101000.97
2023-01-11T19:59:49.745Z,101002.00
2023-01-11T20:02:20.341Z,100990.53
2023-01-11T20:04:48.267Z,101000.84
2023-01-11T20:07:17.751Z,100989.72
2023-01-11T20:09:47.236Z,100972.06
2023-01-11T20:12:17.917Z,100970.72
2023-01-11T20:14:46.513Z,100995.44
2023-01-11T20:17:19.481Z,100916.97
2023-01-11T20:19:54.542Z,100994.63
2023-01-11T20:22:24.362Z,101001.53
2023-01-11T20:24:56.228Z,100985.97
2023-01-11T20:27:24.139Z,100880.97
2023-01-11T20:29:51.955Z,100971.84
2023-01-11T20:32:39.644Z,100989.47
2023-01-11T20:35:07.598Z,100990.38
2023-01-11T20:37:35.187Z,100970.22
2023-01-11T20:40:02.586Z,100924.19
2023-01-11T20:42:31.651Z,100956.41
2023-01-11T20:44:59.020Z,100992.16
2023-01-11T20:47:26.419Z,100979.00
2023-01-11T20:49:53.955Z,100975.63
2023-01-11T20:52:21.451Z,100923.38
2023-01-11T20:54:49.377Z,100972.03
2023-01-11T20:57:17.041Z,100974.50
2023-01-11T20:59:44.429Z,100970.06
2023-01-11T21:02:16.940Z,100906.53
2023-01-11T21:04:44.859Z,100979.63
2023-01-11T21:07:12.410Z,100958.94
2023-01-11T21:09:39.900Z,100964.38
2023-01-11T21:12:09.465Z,100970.38
2023-01-11T21:14:37.114Z,100973.22
2023-01-11T21:17:04.556Z,100974.75
2023-01-11T21:19:32.380Z,100961.81
2023-01-11T21:21:59.852Z,100932.00
2023-01-11T21:24:27.462Z,100926.06
2023-01-11T21:26:55.106Z,100870.56
2023-01-11T21:29:22.779Z,100945.97
2023-01-11T21:31:50.264Z,100957.34
2023-01-11T21:34:17.923Z,100952.94
2023-01-11T21:36:45.636Z,100955.34
2023-01-11T21:39:17.204Z,100957.34
2023-01-11T21:41:58.905Z,100943.78
2023-01-11T21:44:34.139Z,100925.59
2023-01-11T21:47:06.113Z,100951.75
2023-01-11T21:49:34.183Z,100949.09
2023-01-11T21:52:21.776Z,100907.63
2023-01-11T21:54:50.895Z,100907.06
2023-01-11T21:57:18.116Z,100945.31
2023-01-11T21:59:46.045Z,100916.03
2023-01-11T22:02:13.452Z,100947.41
2023-01-11T22:04:40.733Z,100905.44
2023-01-11T22:07:08.550Z,100949.47
2023-01-11T22:09:35.977Z,100953.72
2023-01-11T22:12:03.635Z,100947.63
2023-01-11T22:14:31.346Z,100941.31
2023-01-11T22:16:58.837Z,100852.38
2023-01-11T22:19:26.347Z,100871.31
2023-01-11T22:21:54.031Z,100945.69
2023-01-11T22:24:21.643Z,100906.72
2023-01-11T22:26:49.137Z,100944.25
2023-01-11T22:29:17.268Z,100889.56
2023-01-11T22:31:55.496Z,100945.78
2023-01-11T22:34:23.848Z,100949.13
2023-01-11T22:36:53.454Z,100944.97
2023-01-11T22:39:21.159Z,100907.84
2023-01-11T22:41:49.764Z,100935.66
2023-01-11T22:44:17.701Z,100935.53
2023-01-11T22:46:45.208Z,100938.09
2023-01-11T22:49:13.467Z,100945.84
2023-01-11T22:51:44.207Z,100935.84
2023-01-11T22:54:12.583Z,100932.03
2023-01-11T22:56:41.056Z,100879.84
2023-01-11T22:59:09.054Z,100912.56
2023-01-11T23:01:38.597Z,100919.78
2023-01-11T23:04:07.674Z,100916.63
2023-01-11T23:06:37.774Z,100880.47
2023-01-11T23:09:14.792Z,100906.25
2023-01-11T23:12:01.357Z,100902.88
2023-01-11T23:14:31.240Z,100887.03
2023-01-11T23:17:05.931Z,100852.63
2023-01-11T23:19:34.919Z,100855.16
2023-01-11T23:22:03.569Z,100901.22
2023-01-11T23:24:31.347Z,100851.91
2023-01-11T23:26:59.017Z,100891.72
2023-01-11T23:29:26.362Z,100873.94
2023-01-11T23:31:53.804Z,100884.59
2023-01-11T23:34:21.625Z,100856.41
2023-01-11T23:36:49.027Z,100880.13
2023-01-11T23:39:18.954Z,100882.13
2023-01-11T23:42:05.392Z,100873.22
2023-01-11T23:44:33.478Z,100885.63
2023-01-11T23:47:19.599Z,100857.09
2023-01-11T23:49:50.174Z,100879.47
2023-01-11T23:52:19.806Z,100889.97
2023-01-11T23:54:47.820Z,100827.59
2023-01-11T23:57:16.982Z,100898.06
2023-01-11T23:59:44.607Z,100876.59
